sensor_id;sensor_type;location;lat;lon;timestamp;P1;durP1;ratioP1;P2;durP2;ratioP2
77968;SDS011;67161;0.000;0.000;2023-04-07T00:00:55;865.45;;;275.27;;
77968;SDS011;67161;0.000;0.000;2023-04-07T00:03:21;862.20;;;274.42;;
77968;SDS011;67161;0.000;0.000;2023-04-07T00:05:47;864.13;;;274.20;;
77968;SDS011;67161;0.000;0.000;2023-04-07T00:08:13;860.67;;;272.88;;
77968;SDS011;67161;0.000;0.000;2023-04-07T00:10:38;857.33;;;272.83;;
77968;SDS011;67161;0.000;0.000;2023-04-07T00:13:04;862.17;;;273.23;;
77968;SDS011;67161;0.000;0.000;2023-04-07T00:15:29;859.78;;;273.52;;
77968;SDS011;67161;0.000;0.000;2023-04-07T00:17:55;859.80;;;273.20;;
77968;SDS011;67161;0.000;0.000;2023-04-07T00:20:21;868.15;;;275.33;;
77968;SDS011;67161;0.000;0.000;2023-04-07T00:22:47;863.55;;;274.52;;
77968;SDS011;67161;0.000;0.000;2023-04-07T00:25:13;869.22;;;275.33;;
77968;SDS011;67161;0.000;0.000;2023-04-07T00:27:39;863.67;;;274.48;;
77968;SDS011;67161;0.000;0.000;2023-04-07T00:30:05;861.28;;;273.70;;
77968;SDS011;67161;0.000;0.000;2023-04-07T00:32:31;858.22;;;273.27;;
77968;SDS011;67161;0.000;0.000;2023-04-07T00:34:56;860.63;;;274.00;;
77968;SDS011;67161;0.000;0.000;2023-04-07T00:37:22;861.88;;;273.40;;
77968;SDS011;67161;0.000;0.000;2023-04-07T00:39:49;856.53;;;273.10;;
77968;SDS011;67161;0.000;0.000;2023-04-07T00:42:15;856.10;;;272.48;;
77968;SDS011;67161;0.000;0.000;2023-04-07T00:44:41;859.40;;;273.85;;
77968;SDS011;67161;0.000;0.000;2023-04-07T00:47:07;861.03;;;273.02;;
77968;SDS011;67161;0.000;0.000;2023-04-07T00:49:33;856.63;;;273.05;;
77968;SDS011;67161;0.000;0.000;2023-04-07T00:52:01;862.25;;;275.13;;
77968;SDS011;67161;0.000;0.000;2023-04-07T00:54:27;860.10;;;275.15;;
77968;SDS011;67161;0.000;0.000;2023-04-07T00:56:54;868.05;;;275.35;;
77968;SDS011;67161;0.000;0.000;2023-04-07T00:59:21;867.22;;;274.83;;
77968;SDS011;67161;0.000;0.000;2023-04-07T01:01:54;861.92;;;275.73;;
77968;SDS011;67161;0.000;0.000;2023-04-07T01:07:00;865.92;;;276.15;;
77968;SDS011;67161;0.000;0.000;2023-04-07T01:09:39;864.35;;;274.77;;
77968;SDS011;67161;0.000;0.000;2023-04-07T01:12:16;865.58;;;274.90;;
77968;SDS011;67161;0.000;0.000;2023-04-07T01:14:53;860.03;;;274.75;;
77968;SDS011;67161;0.000;0.000;2023-04-07T01:17:24;865.35;;;274.65;;
77968;SDS011;67161;0.000;0.000;2023-04-07T01:20:03;860.92;;;275.40;;
77968;SDS011;67161;0.000;0.000;2023-04-07T01:22:53;857.58;;;273.85;;
77968;SDS011;67161;0.000;0.000;2023-04-07T01:28:17;858.78;;;274.35;;
77968;SDS011;67161;0.000;0.000;2023-04-07T01:31:04;860.95;;;275.33;;
77968;SDS011;67161;0.000;0.000;2023-04-07T01:33:31;862.45;;;275.58;;
77968;SDS011;67161;0.000;0.000;2023-04-07T01:35:58;860.67;;;273.60;;
77968;SDS011;67161;0.000;0.000;2023-04-07T01:38:25;860.58;;;274.58;;
77968;SDS011;67161;0.000;0.000;2023-04-07T01:40:52;855.13;;;273.10;;
77968;SDS011;67161;0.000;0.000;2023-04-07T01:43:20;859.17;;;272.98;;
77968;SDS011;67161;0.000;0.000;2023-04-07T01:45:47;853.85;;;270.92;;
77968;SDS011;67161;0.000;0.000;2023-04-07T01:48:14;854.92;;;271.52;;
77968;SDS011;67161;0.000;0.000;2023-04-07T01:50:40;850.60;;;271.42;;
77968;SDS011;67161;0.000;0.000;2023-04-07T01:53:07;851.05;;;272.02;;
77968;SDS011;67161;0.000;0.000;2023-04-07T01:55:33;849.60;;;271.48;;
77968;SDS011;67161;0.000;0.000;2023-04-07T01:58:03;849.38;;;271.15;;
77968;SDS011;67161;0.000;0.000;2023-04-07T02:00:30;856.65;;;272.25;;
77968;SDS011;67161;0.000;0.000;2023-04-07T02:02:58;851.22;;;271.45;;
77968;SDS011;67161;0.000;0.000;2023-04-07T02:05:29;852.15;;;272.20;;
77968;SDS011;67161;0.000;0.000;2023-04-07T02:07:57;858.10;;;272.48;;
77968;SDS011;67161;0.000;0.000;2023-04-07T02:10:26;859.92;;;274.27;;
77968;SDS011;67161;0.000;0.000;2023-04-07T02:12:53;859.83;;;273.65;;
77968;SDS011;67161;0.000;0.000;2023-04-07T02:15:21;852.15;;;271.70;;
77968;SDS011;67161;0.000;0.000;2023-04-07T02:17:48;858.33;;;272.67;;
77968;SDS011;67161;0.000;0.000;2023-04-07T02:20:16;856.38;;;271.50;;
77968;SDS011;67161;0.000;0.000;2023-04-07T02:22:43;854.70;;;272.40;;
77968;SDS011;67161;0.000;0.000;2023-04-07T02:25:22;844.25;;;268.58;;
77968;SDS011;67161;0.000;0.000;2023-04-07T02:27:52;852.42;;;272.20;;
77968;SDS011;67161;0.000;0.000;2023-04-07T02:30:18;856.97;;;274.00;;
77968;SDS011;67161;0.000;0.000;2023-04-07T02:32:44;858.63;;;273.08;;
77968;SDS011;67161;0.000;0.000;2023-04-07T02:35:10;859.85;;;273.13;;
77968;SDS011;67161;0.000;0.000;2023-04-07T02:37:36;849.90;;;271.70;;
77968;SDS011;67161;0.000;0.000;2023-04-07T02:40:03;852.17;;;270.60;;
77968;SDS011;67161;0.000;0.000;2023-04-07T02:42:29;846.20;;;270.33;;
77968;SDS011;67161;0.000;0.000;2023-04-07T02:44:55;855.00;;;272.30;;
77968;SDS011;67161;0.000;0.000;2023-04-07T02:47:21;852.17;;;271.80;;
77968;SDS011;67161;0.000;0.000;2023-04-07T02:49:47;859.40;;;273.45;;
77968;SDS011;67161;0.000;0.000;2023-04-07T02:52:12;844.38;;;269.77;;
77968;SDS011;67161;0.000;0.000;2023-04-07T02:54:38;873.25;;;277.65;;
77968;SDS011;67161;0.000;0.000;2023-04-07T02:57:03;876.35;;;278.90;;
77968;SDS011;67161;0.000;0.000;2023-04-07T02:59:29;872.63;;;278.55;;
77968;SDS011;67161;0.000;0.000;2023-04-07T03:01:54;876.33;;;279.92;;
77968;SDS011;67161;0.000;0.000;2023-04-07T03:04:20;883.08;;;280.80;;
77968;SDS011;67161;0.000;0.000;2023-04-07T03:06:46;878.13;;;280.70;;
77968;SDS011;67161;0.000;0.000;2023-04-07T03:09:12;880.00;;;279.52;;
77968;SDS011;67161;0.000;0.000;2023-04-07T03:11:38;882.70;;;281.48;;
77968;SDS011;67161;0.000;0.000;2023-04-07T03:14:03;883.13;;;280.38;;
77968;SDS011;67161;0.000;0.000;2023-04-07T03:16:29;882.20;;;280.00;;
77968;SDS011;67161;0.000;0.000;2023-04-07T03:18:54;872.85;;;277.30;;
77968;SDS011;67161;0.000;0.000;2023-04-07T03:21:20;876.20;;;277.88;;
77968;SDS011;67161;0.000;0.000;2023-04-07T03:23:46;878.55;;;279.77;;
77968;SDS011;67161;0.000;0.000;2023-04-07T03:26:11;879.17;;;278.67;;
77968;SDS011;67161;0.000;0.000;2023-04-07T03:28:37;872.75;;;278.02;;
77968;SDS011;67161;0.000;0.000;2023-04-07T03:31:02;884.38;;;280.85;;
77968;SDS011;67161;0.000;0.000;2023-04-07T03:33:28;873.00;;;278.35;;
77968;SDS011;67161;0.000;0.000;2023-04-07T03:35:53;888.67;;;281.83;;
77968;SDS011;67161;0.000;0.000;2023-04-07T03:38:19;888.10;;;281.60;;
77968;SDS011;67161;0.000;0.000;2023-04-07T03:40:45;889.83;;;283.55;;
77968;SDS011;67161;0.000;0.000;2023-04-07T03:43:11;891.42;;;284.50;;
77968;SDS011;67161;0.000;0.000;2023-04-07T03:45:39;888.65;;;282.63;;
77968;SDS011;67161;0.000;0.000;2023-04-07T03:48:05;886.95;;;282.67;;
77968;SDS011;67161;0.000;0.000;2023-04-07T03:50:34;888.92;;;282.67;;
77968;SDS011;67161;0.000;0.000;2023-04-07T03:53:00;885.05;;;281.73;;
77968;SDS011;67161;0.000;0.000;2023-04-07T03:55:25;886.45;;;280.08;;
77968;SDS011;67161;0.000;0.000;2023-04-07T03:57:51;888.42;;;281.38;;
77968;SDS011;67161;0.000;0.000;2023-04-07T04:00:17;882.75;;;281.30;;
77968;SDS011;67161;0.000;0.000;2023-04-07T04:02:42;878.58;;;279.75;;
77968;SDS011;67161;0.000;0.000;2023-04-07T04:05:08;889.88;;;282.10;;
77968;SDS011;67161;0.000;0.000;2023-04-07T04:07:34;890.05;;;282.23;;
77968;SDS011;67161;0.000;0.000;2023-04-07T04:10:00;892.15;;;282.45;;
77968;SDS011;67161;0.000;0.000;2023-04-07T04:12:25;885.40;;;281.15;;
77968;SDS011;67161;0.000;0.000;2023-04-07T04:14:51;884.80;;;280.20;;
77968;SDS011;67161;0.000;0.000;2023-04-07T04:17:17;891.53;;;282.38;;
77968;SDS011;67161;0.000;0.000;2023-04-07T04:19:42;879.40;;;280.80;;
77968;SDS011;67161;0.000;0.000;2023-04-07T04:22:08;887.33;;;281.23;;
77968;SDS011;67161;0.000;0.000;2023-04-07T04:24:34;878.10;;;279.42;;
77968;SDS011;67161;0.000;0.000;2023-04-07T04:26:59;863.45;;;273.60;;
77968;SDS011;67161;0.000;0.000;2023-04-07T04:29:25;863.33;;;273.15;;
77968;SDS011;67161;0.000;0.000;2023-04-07T04:31:51;859.95;;;273.73;;
77968;SDS011;67161;0.000;0.000;2023-04-07T04:34:17;863.92;;;274.65;;
77968;SDS011;67161;0.000;0.000;2023-04-07T04:36:42;863.53;;;274.88;;
77968;SDS011;67161;0.000;0.000;2023-04-07T04:39:08;869.70;;;275.38;;
77968;SDS011;67161;0.000;0.000;2023-04-07T04:41:34;866.40;;;275.50;;
77968;SDS011;67161;0.000;0.000;2023-04-07T04:43:59;866.85;;;275.15;;
77968;SDS011;67161;0.000;0.000;2023-04-07T04:46:25;876.35;;;277.45;;
77968;SDS011;67161;0.000;0.000;2023-04-07T04:48:51;869.42;;;275.85;;
77968;SDS011;67161;0.000;0.000;2023-04-07T04:51:18;880.13;;;277.95;;
77968;SDS011;67161;0.000;0.000;2023-04-07T04:53:43;879.25;;;277.63;;
77968;SDS011;67161;0.000;0.000;2023-04-07T04:56:09;882.70;;;278.15;;
77968;SDS011;67161;0.000;0.000;2023-04-07T04:58:35;880.22;;;278.67;;
77968;SDS011;67161;0.000;0.000;2023-04-07T05:01:01;875.58;;;277.27;;
77968;SDS011;67161;0.000;0.000;2023-04-07T05:03:27;878.08;;;277.48;;
77968;SDS011;67161;0.000;0.000;2023-04-07T05:05:52;880.20;;;276.98;;
77968;SDS011;67161;0.000;0.000;2023-04-07T05:08:18;871.58;;;275.83;;
77968;SDS011;67161;0.000;0.000;2023-04-07T05:10:45;878.58;;;276.42;;
77968;SDS011;67161;0.000;0.000;2023-04-07T05:13:10;883.13;;;278.17;;
77968;SDS011;67161;0.000;0.000;2023-04-07T05:15:36;874.58;;;276.50;;
77968;SDS011;67161;0.000;0.000;2023-04-07T05:18:02;883.50;;;279.35;;
77968;SDS011;67161;0.000;0.000;2023-04-07T05:20:27;878.28;;;277.77;;
77968;SDS011;67161;0.000;0.000;2023-04-07T05:22:53;894.33;;;281.30;;
77968;SDS011;67161;0.000;0.000;2023-04-07T05:25:18;882.33;;;279.13;;
77968;SDS011;67161;0.000;0.000;2023-04-07T05:27:44;876.75;;;277.55;;
77968;SDS011;67161;0.000;0.000;2023-04-07T05:30:10;888.38;;;279.83;;
77968;SDS011;67161;0.000;0.000;2023-04-07T05:32:36;882.45;;;278.35;;
77968;SDS011;67161;0.000;0.000;2023-04-07T05:35:02;881.92;;;277.80;;
77968;SDS011;67161;0.000;0.000;2023-04-07T05:37:27;876.80;;;276.98;;
77968;SDS011;67161;0.000;0.000;2023-04-07T05:39:53;880.03;;;278.02;;
77968;SDS011;67161;0.000;0.000;2023-04-07T05:42:18;878.35;;;277.55;;
77968;SDS011;67161;0.000;0.000;2023-04-07T05:44:45;882.55;;;279.10;;
77968;SDS011;67161;0.000;0.000;2023-04-07T05:47:10;882.22;;;279.30;;
77968;SDS011;67161;0.000;0.000;2023-04-07T05:49:36;883.28;;;279.10;;
77968;SDS011;67161;0.000;0.000;2023-04-07T05:52:02;887.83;;;280.20;;
77968;SDS011;67161;0.000;0.000;2023-04-07T05:54:29;890.33;;;280.27;;
77968;SDS011;67161;0.000;0.000;2023-04-07T05:56:55;894.08;;;281.98;;
77968;SDS011;67161;0.000;0.000;2023-04-07T05:59:21;896.28;;;282.55;;
77968;SDS011;67161;0.000;0.000;2023-04-07T06:01:47;889.05;;;282.25;;
77968;SDS011;67161;0.000;0.000;2023-04-07T06:04:13;895.10;;;281.92;;
77968;SDS011;67161;0.000;0.000;2023-04-07T06:06:38;883.25;;;280.60;;
77968;SDS011;67161;0.000;0.000;2023-04-07T06:09:04;889.92;;;281.77;;
77968;SDS011;67161;0.000;0.000;2023-04-07T06:11:30;883.60;;;280.83;;
77968;SDS011;67161;0.000;0.000;2023-04-07T06:13:55;882.58;;;280.70;;
77968;SDS011;67161;0.000;0.000;2023-04-07T06:16:21;888.40;;;281.00;;
77968;SDS011;67161;0.000;0.000;2023-04-07T06:18:46;887.47;;;281.60;;
77968;SDS011;67161;0.000;0.000;2023-04-07T06:21:12;884.83;;;281.00;;
77968;SDS011;67161;0.000;0.000;2023-04-07T06:23:37;888.17;;;281.40;;
77968;SDS011;67161;0.000;0.000;2023-04-07T06:26:03;881.25;;;279.92;;
77968;SDS011;67161;0.000;0.000;2023-04-07T06:28:29;882.60;;;280.98;;
77968;SDS011;67161;0.000;0.000;2023-04-07T06:30:55;881.50;;;280.42;;
77968;SDS011;67161;0.000;0.000;2023-04-07T06:33:20;886.53;;;280.90;;
77968;SDS011;67161;0.000;0.000;2023-04-07T06:35:49;886.67;;;281.20;;
77968;SDS011;67161;0.000;0.000;2023-04-07T06:38:15;899.72;;;284.48;;
77968;SDS011;67161;0.000;0.000;2023-04-07T06:40:41;901.83;;;284.48;;
77968;SDS011;67161;0.000;0.000;2023-04-07T06:43:07;892.55;;;282.90;;
77968;SDS011;67161;0.000;0.000;2023-04-07T06:45:32;899.97;;;285.63;;
77968;SDS011;67161;0.000;0.000;2023-04-07T06:47:58;897.15;;;283.83;;
77968;SDS011;67161;0.000;0.000;2023-04-07T06:50:23;896.35;;;284.08;;
77968;SDS011;67161;0.000;0.000;2023-04-07T06:52:49;902.42;;;284.52;;
77968;SDS011;67161;0.000;0.000;2023-04-07T06:55:15;900.78;;;283.85;;
77968;SDS011;67161;0.000;0.000;2023-04-07T06:57:40;899.92;;;285.65;;
77968;SDS011;67161;0.000;0.000;2023-04-07T07:00:06;906.47;;;285.80;;
77968;SDS011;67161;0.000;0.000;2023-04-07T07:02:33;917.63;;;288.95;;
77968;SDS011;67161;0.000;0.000;2023-04-07T07:04:59;905.15;;;287.52;;
77968;SDS011;67161;0.000;0.000;2023-04-07T07:07:25;914.47;;;289.05;;
77968;SDS011;67161;0.000;0.000;2023-04-07T07:09:50;919.13;;;290.15;;
77968;SDS011;67161;0.000;0.000;2023-04-07T07:12:17;909.45;;;287.38;;
77968;SDS011;67161;0.000;0.000;2023-04-07T07:14:43;907.40;;;286.55;;
77968;SDS011;67161;0.000;0.000;2023-04-07T07:17:09;899.50;;;285.17;;
77968;SDS011;67161;0.000;0.000;2023-04-07T07:19:34;898.58;;;284.92;;
77968;SDS011;67161;0.000;0.000;2023-04-07T07:22:00;906.08;;;285.35;;
77968;SDS011;67161;0.000;0.000;2023-04-07T07:24:28;894.97;;;284.05;;
77968;SDS011;67161;0.000;0.000;2023-04-07T07:26:54;893.58;;;282.20;;
77968;SDS011;67161;0.000;0.000;2023-04-07T07:29:21;891.53;;;282.58;;
77968;SDS011;67161;0.000;0.000;2023-04-07T07:31:46;890.45;;;282.45;;
77968;SDS011;67161;0.000;0.000;2023-04-07T07:34:12;896.60;;;284.98;;
77968;SDS011;67161;0.000;0.000;2023-04-07T07:36:38;896.47;;;282.88;;
77968;SDS011;67161;0.000;0.000;2023-04-07T07:39:03;893.63;;;283.85;;
77968;SDS011;67161;0.000;0.000;2023-04-07T07:41:29;890.58;;;282.35;;
77968;SDS011;67161;0.000;0.000;2023-04-07T07:43:55;889.00;;;281.48;;
77968;SDS011;67161;0.000;0.000;2023-04-07T07:46:21;893.85;;;283.25;;
77968;SDS011;67161;0.000;0.000;2023-04-07T07:48:48;891.90;;;282.90;;
77968;SDS011;67161;0.000;0.000;2023-04-07T07:51:13;891.17;;;281.90;;
77968;SDS011;67161;0.000;0.000;2023-04-07T07:53:39;885.53;;;280.95;;
77968;SDS011;67161;0.000;0.000;2023-04-07T07:56:05;887.78;;;280.83;;
77968;SDS011;67161;0.000;0.000;2023-04-07T07:58:30;893.90;;;282.67;;
77968;SDS011;67161;0.000;0.000;2023-04-07T08:00:56;891.50;;;281.70;;
77968;SDS011;67161;0.000;0.000;2023-04-07T08:03:22;875.50;;;278.20;;
77968;SDS011;67161;0.000;0.000;2023-04-07T08:05:48;885.05;;;279.55;;
77968;SDS011;67161;0.000;0.000;2023-04-07T08:08:14;883.28;;;279.40;;
77968;SDS011;67161;0.000;0.000;2023-04-07T08:10:40;879.72;;;279.63;;
77968;SDS011;67161;0.000;0.000;2023-04-07T08:13:05;868.78;;;276.17;;
77968;SDS011;67161;0.000;0.000;2023-04-07T08:15:31;871.97;;;277.55;;
77968;SDS011;67161;0.000;0.000;2023-04-07T08:17:57;875.75;;;276.30;;
77968;SDS011;67161;0.000;0.000;2023-04-07T08:20:24;871.60;;;274.85;;
77968;SDS011;67161;0.000;0.000;2023-04-07T08:22:50;844.80;;;267.75;;
77968;SDS011;67161;0.000;0.000;2023-04-07T08:25:16;844.97;;;267.98;;
77968;SDS011;67161;0.000;0.000;2023-04-07T08:27:42;857.80;;;270.92;;
77968;SDS011;67161;0.000;0.000;2023-04-07T08:30:07;863.30;;;274.15;;
77968;SDS011;67161;0.000;0.000;2023-04-07T08:32:40;869.42;;;274.88;;
77968;SDS011;67161;0.000;0.000;2023-04-07T08:35:06;873.05;;;275.70;;
77968;SDS011;67161;0.000;0.000;2023-04-07T08:37:32;872.67;;;275.67;;
77968;SDS011;67161;0.000;0.000;2023-04-07T08:39:59;876.08;;;276.95;;
77968;SDS011;67161;0.000;0.000;2023-04-07T08:42:26;871.95;;;276.55;;
77968;SDS011;67161;0.000;0.000;2023-04-07T08:44:57;870.25;;;276.20;;
77968;SDS011;67161;0.000;0.000;2023-04-07T08:47:30;870.78;;;276.63;;
77968;SDS011;67161;0.000;0.000;2023-04-07T08:49:59;882.95;;;279.00;;
77968;SDS011;67161;0.000;0.000;2023-04-07T08:52:28;872.67;;;277.48;;
77968;SDS011;67161;0.000;0.000;2023-04-07T08:54:58;875.17;;;276.85;;
77968;SDS011;67161;0.000;0.000;2023-04-07T08:57:27;869.85;;;277.40;;
77968;SDS011;67161;0.000;0.000;2023-04-07T08:59:55;871.92;;;277.20;;
77968;SDS011;67161;0.000;0.000;2023-04-07T09:02:24;879.30;;;277.77;;
77968;SDS011;67161;0.000;0.000;2023-04-07T09:04:50;881.08;;;277.73;;
77968;SDS011;67161;0.000;0.000;2023-04-07T09:07:16;878.30;;;279.15;;
77968;SDS011;67161;0.000;0.000;2023-04-07T09:09:41;878.47;;;277.48;;
77968;SDS011;67161;0.000;0.000;2023-04-07T09:12:07;875.55;;;278.45;;
77968;SDS011;67161;0.000;0.000;2023-04-07T09:14:33;876.58;;;277.38;;
77968;SDS011;67161;0.000;0.000;2023-04-07T09:16:58;881.15;;;278.52;;
77968;SDS011;67161;0.000;0.000;2023-04-07T09:19:25;882.72;;;278.67;;
77968;SDS011;67161;0.000;0.000;2023-04-07T09:21:51;875.83;;;278.42;;
77968;SDS011;67161;0.000;0.000;2023-04-07T09:24:24;881.15;;;279.90;;
77968;SDS011;67161;0.000;0.000;2023-04-07T09:27:10;884.00;;;279.80;;
77968;SDS011;67161;0.000;0.000;2023-04-07T09:29:37;876.80;;;277.98;;
77968;SDS011;67161;0.000;0.000;2023-04-07T09:32:04;878.08;;;278.75;;
77968;SDS011;67161;0.000;0.000;2023-04-07T09:34:32;878.83;;;279.33;;
77968;SDS011;67161;0.000;0.000;2023-04-07T09:36:59;880.40;;;279.25;;
77968;SDS011;67161;0.000;0.000;2023-04-07T09:39:25;882.20;;;280.58;;
77968;SDS011;67161;0.000;0.000;2023-04-07T09:41:51;879.72;;;280.42;;
77968;SDS011;67161;0.000;0.000;2023-04-07T09:44:17;892.05;;;282.48;;
77968;SDS011;67161;0.000;0.000;2023-04-07T09:46:50;883.78;;;281.30;;
77968;SDS011;67161;0.000;0.000;2023-04-07T09:49:17;882.30;;;280.25;;
77968;SDS011;67161;0.000;0.000;2023-04-07T09:52:02;884.72;;;281.42;;
77968;SDS011;67161;0.000;0.000;2023-04-07T09:57:04;887.67;;;281.30;;
77968;SDS011;67161;0.000;0.000;2023-04-07T09:59:31;880.90;;;280.48;;
77968;SDS011;67161;0.000;0.000;2023-04-07T10:01:58;884.78;;;281.02;;
77968;SDS011;67161;0.000;0.000;2023-04-07T10:04:25;884.72;;;280.45;;
77968;SDS011;67161;0.000;0.000;2023-04-07T10:06:54;879.92;;;280.23;;
77968;SDS011;67161;0.000;0.000;2023-04-07T10:09:21;889.58;;;282.48;;
77968;SDS011;67161;0.000;0.000;2023-04-07T10:11:49;889.28;;;282.08;;
77968;SDS011;67161;0.000;0.000;2023-04-07T10:14:16;891.17;;;282.60;;
77968;SDS011;67161;0.000;0.000;2023-04-07T10:16:43;888.25;;;280.38;;
77968;SDS011;67161;0.000;0.000;2023-04-07T10:19:10;883.72;;;279.27;;
77968;SDS011;67161;0.000;0.000;2023-04-07T10:21:38;883.45;;;280.42;;
77968;SDS011;67161;0.000;0.000;2023-04-07T10:24:14;874.13;;;277.10;;
77968;SDS011;67161;0.000;0.000;2023-04-07T10:26:45;884.63;;;279.58;;
77968;SDS011;67161;0.000;0.000;2023-04-07T10:29:15;883.03;;;278.63;;
77968;SDS011;67161;0.000;0.000;2023-04-07T10:31:43;877.83;;;279.00;;
77968;SDS011;67161;0.000;0.000;2023-04-07T10:34:10;884.75;;;279.98;;
77968;SDS011;67161;0.000;0.000;2023-04-07T10:36:43;880.75;;;279.38;;
77968;SDS011;67161;0.000;0.000;2023-04-07T10:39:34;887.33;;;280.60;;
77968;SDS011;67161;0.000;0.000;2023-04-07T10:42:01;882.15;;;280.13;;
77968;SDS011;67161;0.000;0.000;2023-04-07T10:47:06;890.15;;;281.25;;
77968;SDS011;67161;0.000;0.000;2023-04-07T10:49:32;886.92;;;281.15;;
77968;SDS011;67161;0.000;0.000;2023-04-07T10:54:36;887.85;;;280.35;;
77968;SDS011;67161;0.000;0.000;2023-04-07T10:59:29;887.90;;;279.40;;
77968;SDS011;67161;0.000;0.000;2023-04-07T11:04:41;892.67;;;281.25;;
77968;SDS011;67161;0.000;0.000;2023-04-07T11:07:08;891.22;;;282.17;;
77968;SDS011;67161;0.000;0.000;2023-04-07T11:09:34;893.83;;;281.23;;
77968;SDS011;67161;0.000;0.000;2023-04-07T11:12:00;896.45;;;282.15;;
77968;SDS011;67161;0.000;0.000;2023-04-07T11:14:27;894.47;;;281.42;;
77968;SDS011;67161;0.000;0.000;2023-04-07T11:16:54;887.92;;;279.52;;
77968;SDS011;67161;0.000;0.000;2023-04-07T11:19:20;881.10;;;279.20;;
77968;SDS011;67161;0.000;0.000;2023-04-07T11:21:46;890.47;;;280.38;;
77968;SDS011;67161;0.000;0.000;2023-04-07T11:24:34;889.33;;;279.98;;
77968;SDS011;67161;0.000;0.000;2023-04-07T11:27:03;895.42;;;281.90;;
77968;SDS011;67161;0.000;0.000;2023-04-07T11:29:32;889.00;;;282.00;;
77968;SDS011;67161;0.000;0.000;2023-04-07T11:31:59;897.38;;;283.55;;
77968;SDS011;67161;0.000;0.000;2023-04-07T11:34:33;889.83;;;280.67;;
77968;SDS011;67161;0.000;0.000;2023-04-07T11:37:19;888.83;;;280.92;;
77968;SDS011;67161;0.000;0.000;2023-04-07T11:39:52;892.65;;;280.95;;
77968;SDS011;67161;0.000;0.000;2023-04-07T11:42:37;899.08;;;283.33;;
77968;SDS011;67161;0.000;0.000;2023-04-07T11:45:04;896.88;;;283.13;;
77968;SDS011;67161;0.000;0.000;2023-04-07T11:47:37;884.15;;;280.23;;
77968;SDS011;67161;0.000;0.000;2023-04-07T11:50:04;887.05;;;280.38;;
77968;SDS011;67161;0.000;0.000;2023-04-07T11:52:40;892.17;;;281.75;;
77968;SDS011;67161;0.000;0.000;2023-04-07T11:55:28;891.05;;;280.80;;
77968;SDS011;67161;0.000;0.000;2023-04-07T11:57:53;884.65;;;279.95;;
77968;SDS011;67161;0.000;0.000;2023-04-07T12:00:19;879.58;;;278.20;;
77968;SDS011;67161;0.000;0.000;2023-04-07T12:02:45;887.75;;;279.40;;
77968;SDS011;67161;0.000;0.000;2023-04-07T12:05:11;886.70;;;278.05;;
77968;SDS011;67161;0.000;0.000;2023-04-07T12:07:37;886.67;;;279.00;;
77968;SDS011;67161;0.000;0.000;2023-04-07T12:10:17;887.05;;;279.52;;
77968;SDS011;67161;0.000;0.000;2023-04-07T12:12:47;884.25;;;279.40;;
77968;SDS011;67161;0.000;0.000;2023-04-07T12:15:13;887.95;;;279.30;;
77968;SDS011;67161;0.000;0.000;2023-04-07T12:17:43;883.25;;;279.60;;
77968;SDS011;67161;0.000;0.000;2023-04-07T12:20:11;877.25;;;275.08;;
77968;SDS011;67161;0.000;0.000;2023-04-07T12:22:37;881.03;;;277.13;;
77968;SDS011;67161;0.000;0.000;2023-04-07T12:25:02;884.47;;;277.52;;
77968;SDS011;67161;0.000;0.000;2023-04-07T12:27:28;885.78;;;278.13;;
77968;SDS011;67161;0.000;0.000;2023-04-07T12:29:53;885.45;;;278.40;;
77968;SDS011;67161;0.000;0.000;2023-04-07T12:32:19;885.65;;;277.48;;
77968;SDS011;67161;0.000;0.000;2023-04-07T12:34:46;886.92;;;277.92;;
77968;SDS011;67161;0.000;0.000;2023-04-07T12:37:12;880.08;;;277.35;;
77968;SDS011;67161;0.000;0.000;2023-04-07T12:39:37;885.45;;;278.25;;
77968;SDS011;67161;0.000;0.000;2023-04-07T12:42:03;888.45;;;278.85;;
77968;SDS011;67161;0.000;0.000;2023-04-07T12:44:29;879.30;;;277.60;;
77968;SDS011;67161;0.000;0.000;2023-04-07T12:46:55;883.00;;;276.98;;
77968;SDS011;67161;0.000;0.000;2023-04-07T12:49:20;883.53;;;277.02;;
77968;SDS011;67161;0.000;0.000;2023-04-07T12:51:46;882.42;;;276.67;;
77968;SDS011;67161;0.000;0.000;2023-04-07T12:54:11;876.92;;;276.80;;
77968;SDS011;67161;0.000;0.000;2023-04-07T12:56:37;877.42;;;275.38;;
77968;SDS011;67161;0.000;0.000;2023-04-07T12:59:04;881.10;;;275.95;;
77968;SDS011;67161;0.000;0.000;2023-04-07T13:01:30;877.95;;;275.33;;
77968;SDS011;67161;0.000;0.000;2023-04-07T13:03:57;881.83;;;276.67;;
77968;SDS011;67161;0.000;0.000;2023-04-07T13:06:22;877.85;;;275.75;;
77968;SDS011;67161;0.000;0.000;2023-04-07T13:08:48;880.35;;;276.77;;
77968;SDS011;67161;0.000;0.000;2023-04-07T13:11:14;880.15;;;275.90;;
77968;SDS011;67161;0.000;0.000;2023-04-07T13:13:39;881.67;;;276.73;;
77968;SDS011;67161;0.000;0.000;2023-04-07T13:16:05;883.00;;;276.75;;
77968;SDS011;67161;0.000;0.000;2023-04-07T13:18:31;874.40;;;275.88;;
77968;SDS011;67161;0.000;0.000;2023-04-07T13:20:56;885.15;;;278.98;;
77968;SDS011;67161;0.000;0.000;2023-04-07T13:23:22;891.58;;;280.20;;
77968;SDS011;67161;0.000;0.000;2023-04-07T13:25:47;900.92;;;283.45;;
77968;SDS011;67161;0.000;0.000;2023-04-07T13:28:13;895.70;;;282.27;;
77968;SDS011;67161;0.000;0.000;2023-04-07T13:30:42;901.97;;;282.52;;
77968;SDS011;67161;0.000;0.000;2023-04-07T13:33:07;897.90;;;281.45;;
77968;SDS011;67161;0.000;0.000;2023-04-07T13:35:33;903.17;;;282.38;;
77968;SDS011;67161;0.000;0.000;2023-04-07T13:38:00;895.15;;;280.95;;
77968;SDS011;67161;0.000;0.000;2023-04-07T13:40:27;897.90;;;280.95;;
77968;SDS011;67161;0.000;0.000;2023-04-07T13:42:52;898.25;;;281.48;;
77968;SDS011;67161;0.000;0.000;2023-04-07T13:45:18;895.85;;;281.55;;
77968;SDS011;67161;0.000;0.000;2023-04-07T13:47:44;896.45;;;282.30;;
77968;SDS011;67161;0.000;0.000;2023-04-07T13:50:10;898.55;;;283.35;;
77968;SDS011;67161;0.000;0.000;2023-04-07T13:52:35;898.17;;;281.27;;
77968;SDS011;67161;0.000;0.000;2023-04-07T13:55:01;899.30;;;281.60;;
77968;SDS011;67161;0.000;0.000;2023-04-07T13:57:29;894.72;;;281.83;;
77968;SDS011;67161;0.000;0.000;2023-04-07T13:59:55;900.10;;;282.65;;
77968;SDS011;67161;0.000;0.000;2023-04-07T14:02:21;897.38;;;280.42;;
77968;SDS011;67161;0.000;0.000;2023-04-07T14:04:48;888.30;;;279.48;;
77968;SDS011;67161;0.000;0.000;2023-04-07T14:07:14;895.70;;;281.10;;
77968;SDS011;67161;0.000;0.000;2023-04-07T14:09:39;895.03;;;280.38;;
77968;SDS011;67161;0.000;0.000;2023-04-07T14:12:06;896.70;;;281.73;;
77968;SDS011;67161;0.000;0.000;2023-04-07T14:14:32;902.58;;;282.35;;
77968;SDS011;67161;0.000;0.000;2023-04-07T14:16:58;893.97;;;282.08;;
77968;SDS011;67161;0.000;0.000;2023-04-07T14:19:24;900.35;;;281.83;;
77968;SDS011;67161;0.000;0.000;2023-04-07T14:21:50;897.35;;;282.00;;
77968;SDS011;67161;0.000;0.000;2023-04-07T14:24:16;897.20;;;281.02;;
77968;SDS011;67161;0.000;0.000;2023-04-07T14:26:42;893.13;;;279.85;;